Thursday, August 16, 2018, 1:57 AM EDT
Back to Local

KMTP, Montauk Airport

Location: Montauk, NY, United States Lat: 41.067
Local Time: 1:57 AM EDT ( 5:57 GMT) Lon: -71.917
Time Zone: US/Eastern Elev: 6 ft

Show me the last for .
Show Coded

Time T Td Feel RH Dir Speed Gust Alt SLP Vis Weather Sky Remarks
2018-08-16 00:54 78 70 82 76 260° 5 - 29.96 29.96 0 24-hr Min Temp (1am): 72.0°F
24-hr Max Temp (1am): 84.9°F
2018-08-15 23:54 79 69 82 71 240° 5 - 29.96 29.96 0 None
2018-08-15 22:54 78 70 82 76 - Calm - 29.96 29.96 0 None
2018-08-15 21:54 78 71 82 79 240° 5 - 29.96 29.96 0 None
2018-08-15 20:54 79 72 84 79 240° 7 - 29.94 29.94 0 None
2018-08-15 19:54 81 70 85 69 250° 5 - 29.92 29.92 0 6-hr Min Temp (8pm): 81.0°F
6-hr Max Temp (8pm): 84.9°F
2018-08-15 18:54 83 70 87 65 250° 7 - 29.90 29.90 0 None
2018-08-15 17:54 83 71 88 67 250° 7 - 29.89 29.89 0 None
2018-08-15 16:54 84 71 89 65 260° 8 - 29.88 29.88 0 None
2018-08-15 15:54 84 71 89 65 270° 9 - 29.89 29.88 0 None
2018-08-15 14:54 83 70 87 65 270° 10 - 29.89 29.89 0 None
2018-08-15 13:54 82 70 86 67 270° 9 - 29.89 29.88 0 6-hr Min Temp (2pm): 73.0°F
6-hr Max Temp (2pm): 82.0°F
2018-08-15 12:54 81 70 85 69 270° 10 - 29.89 29.88 0 None
2018-08-15 11:54 79 70 83 74 290° 9 - 29.89 29.88 0 None
2018-08-15 10:54 77 69 80 76 280° 8 - 29.88 29.88 0 None
2018-08-15 09:54 76 70 80 81 290° 7 - 29.88 29.87 0 None
2018-08-15 08:54 75 70 79 84 300° 6 - 29.86 29.86 0 None
2018-08-15 07:54 74 71 78 90 280° 6 - 29.86 29.86 0 6-hr Min Temp (8am): 72.0°F
6-hr Max Temp (8am): 73.9°F
2018-08-15 06:54 72 71 77 97 - Calm - 29.84 29.84 0 None
2018-08-15 05:54 73 71 77 93 260° 3 - 29.83 29.83 0 None
2018-08-15 04:54 73 70 77 90 230° 5 - 29.83 29.83 0 None
2018-08-15 03:54 73 71 77 93 220° 3 - 29.83 29.83 0 None
2018-08-15 02:54 73 70 77 90 250° 7 - 29.84 29.84 0 None

Support USWX by starting your Amazon purchase here.